Time;durP1;ratioP1;P1;durP2;ratioP2;P2;SDS_P1;SDS_P2;PMS_P1;PMS_P2;Temp;Humidity;BMP_temperature;BMP_pressure;BME280_temperature;BME280_humidity;BME280_pressure;Samples;Min_cycle;Max_cycle;Signal;HPM_P1;HPM_P2
2022/05/10 00:01:40;;;;;;;18.42;7.90;;;;;;;;;;5070761;28;20064;-81
2022/05/10 00:04:07;;;;;;;18.08;8.23;;;;;;;;;;5082276;28;20067;-81
2022/05/10 00:06:38;;;;;;;12.85;7.90;;;;;;;;;;5064532;28;20396;-80
2022/05/10 00:09:05;;;;;;;19.60;9.20;;;;;;;;;;5060061;28;20032;-84
2022/05/10 00:11:32;;;;;;;16.05;8.35;;;;;;;;;;5085985;28;20040;-84
2022/05/10 00:13:58;;;;;;;16.40;8.13;;;;;;;;;;5073822;28;20036;-84
2022/05/10 00:16:24;;;;;;;15.60;8.45;;;;;;;;;;5072668;28;20053;-84
2022/05/10 00:18:50;;;;;;;14.80;7.93;;;;;;;;;;5079172;28;20059;-84
2022/05/10 00:21:17;;;;;;;18.33;8.90;;;;;;;;;;5068953;28;20048;-84
2022/05/10 00:23:44;;;;;;;13.10;7.90;;;;;;;;;;5069621;28;20089;-84
2022/05/10 00:26:10;;;;;;;17.05;8.55;;;;;;;;;;5087022;28;20036;-83
2022/05/10 00:28:36;;;;;;;15.75;8.00;;;;;;;;;;5081440;28;20041;-84
2022/05/10 00:31:02;;;;;;;18.55;8.40;;;;;;;;;;5056756;28;20389;-84
2022/05/10 00:33:29;;;;;;;16.55;8.63;;;;;;;;;;5076183;28;20089;-83
2022/05/10 00:35:55;;;;;;;15.35;8.45;;;;;;;;;;5073426;28;20044;-83
2022/05/10 00:38:25;;;;;;;18.08;9.00;;;;;;;;;;5078700;28;20032;-81
2022/05/10 00:40:51;;;;;;;15.55;8.57;;;;;;;;;;5076080;28;20515;-81
2022/05/10 00:43:25;;;;;;;17.60;8.93;;;;;;;;;;5051817;28;20066;-81
2022/05/10 00:45:57;;;;;;;14.57;8.68;;;;;;;;;;5068761;28;20066;-81
2022/05/10 00:48:34;;;;;;;17.10;9.27;;;;;;;;;;5068014;28;20032;-81
2022/05/10 00:51:06;;;;;;;18.17;8.55;;;;;;;;;;5051711;28;20492;-80
2022/05/10 00:53:54;;;;;;;17.25;8.85;;;;;;;;;;5072589;28;20540;-80
2022/05/10 00:56:38;;;;;;;15.35;8.68;;;;;;;;;;5085047;28;20032;-80
2022/05/10 00:59:10;;;;;;;16.67;8.65;;;;;;;;;;5087332;28;20050;-81
2022/05/10 01:01:36;;;;;;;16.48;8.98;;;;;;;;;;5086159;28;20048;-81
2022/05/10 01:04:02;;;;;;;18.98;8.55;;;;;;;;;;5068562;28;20480;-81
2022/05/10 01:06:31;;;;;;;21.92;8.88;;;;;;;;;;5058069;28;20553;-81
2022/05/10 01:09:15;;;;;;;16.23;8.63;;;;;;;;;;5084519;28;20487;-81
2022/05/10 01:12:03;;;;;;;16.60;8.35;;;;;;;;;;5067572;28;20094;-81
2022/05/10 01:14:29;;;;;;;19.45;9.55;;;;;;;;;;5083945;28;20427;-80
2022/05/10 01:16:56;;;;;;;17.98;8.45;;;;;;;;;;5051400;28;20044;-83
2022/05/10 01:19:22;;;;;;;15.05;8.50;;;;;;;;;;5082651;28;20040;-84
2022/05/10 01:22:07;;;;;;;13.50;8.13;;;;;;;;;;5095022;28;20080;-84
2022/05/10 01:24:48;;;;;;;15.90;8.40;;;;;;;;;;5084380;28;20070;-84
2022/05/10 01:27:18;;;;;;;16.92;9.05;;;;;;;;;;5062660;28;20040;-84
2022/05/10 01:30:04;;;;;;;16.15;7.90;;;;;;;;;;5061782;28;20032;-84
2022/05/10 01:35:32;;;;;;;15.80;8.27;;;;;;;;;;5067602;28;20044;-83
2022/05/10 01:38:01;;;;;;;13.77;8.52;;;;;;;;;;5060303;28;20094;-84
2022/05/10 01:40:27;;;;;;;14.88;8.40;;;;;;;;;;5077020;28;20131;-83
2022/05/10 01:43:03;;;;;;;13.65;8.57;;;;;;;;;;5083338;28;20044;-83
2022/05/10 01:45:49;;;;;;;12.73;8.15;;;;;;;;;;5055157;28;20583;-82
2022/05/10 01:48:18;;;;;;;13.57;8.23;;;;;;;;;;5065537;28;20399;-84
2022/05/10 01:50:47;;;;;;;19.33;8.57;;;;;;;;;;5077367;28;20147;-83
2022/05/10 01:53:33;;;;;;;16.48;8.52;;;;;;;;;;5092558;28;20123;-84
2022/05/10 01:56:07;;;;;;;12.52;7.90;;;;;;;;;;5079574;28;20040;-83
2022/05/10 01:58:34;;;;;;;17.98;7.85;;;;;;;;;;5063839;28;20050;-83
2022/05/10 02:01:00;;;;;;;15.20;8.48;;;;;;;;;;5074548;28;20077;-84
2022/05/10 02:03:45;;;;;;;17.80;8.43;;;;;;;;;;5071589;28;20036;-84
2022/05/10 02:06:24;;;;;;;12.88;7.28;;;;;;;;;;5078895;28;20165;-84
2022/05/10 02:08:56;;;;;;;13.10;7.70;;;;;;;;;;5073647;28;20065;-83
2022/05/10 02:11:23;;;;;;;18.90;8.45;;;;;;;;;;5076249;28;20536;-84
2022/05/10 02:14:04;;;;;;;15.70;8.13;;;;;;;;;;5073351;28;20040;-84
2022/05/10 02:16:40;;;;;;;15.95;8.02;;;;;;;;;;5076555;28;20127;-84
2022/05/10 02:19:06;;;;;;;;;;;;;;;;;;5074634;28;20033;-84
2022/05/10 02:21:38;;;;;;;15.15;7.57;;;;;;;;;;5077300;28;20441;-84
2022/05/10 02:24:07;;;;;;;17.70;7.90;;;;;;;;;;5071271;28;20048;-84
2022/05/10 02:26:36;;;;;;;12.98;7.38;;;;;;;;;;5085938;28;20424;-84
2022/05/10 02:29:11;;;;;;;13.48;7.97;;;;;;;;;;5073015;28;20037;-84
2022/05/10 02:34:36;;;;;;;17.38;8.38;;;;;;;;;;5083630;28;20040;-84
2022/05/10 02:37:02;;;;;;;14.85;7.57;;;;;;;;;;5076053;28;20051;-84
2022/05/10 02:39:28;;;;;;;16.65;8.13;;;;;;;;;;5078133;28;20037;-84
2022/05/10 02:41:54;;;;;;;17.98;8.68;;;;;;;;;;5071724;28;20045;-84
2022/05/10 02:44:21;;;;;;;16.90;8.82;;;;;;;;;;5083794;28;20044;-84
2022/05/10 02:46:47;;;;;;;17.10;8.30;;;;;;;;;;5060866;28;20040;-84
2022/05/10 02:49:13;;;;;;;17.90;8.00;;;;;;;;;;5076100;28;20512;-84
2022/05/10 02:51:40;;;;;;;15.25;8.63;;;;;;;;;;5075753;28;20056;-84
2022/05/10 02:54:06;;;;;;;16.48;8.57;;;;;;;;;;5075051;28;20040;-84
2022/05/10 02:56:32;;;;;;;15.77;8.02;;;;;;;;;;5073312;28;20040;-84
2022/05/10 02:59:10;;;;;;;14.80;7.90;;;;;;;;;;5081452;28;20044;-84
2022/05/10 03:01:43;;;;;;;14.95;8.07;;;;;;;;;;5078175;28;20051;-84
2022/05/10 03:04:09;;;;;;;15.10;7.88;;;;;;;;;;5054542;28;20043;-84
2022/05/10 03:06:36;;;;;;;15.25;8.73;;;;;;;;;;5079411;28;20118;-84
2022/05/10 03:09:03;;;;;;;13.18;8.10;;;;;;;;;;5062227;28;20116;-84
2022/05/10 03:11:29;;;;;;;14.10;7.85;;;;;;;;;;5077996;28;21184;-83
2022/05/10 03:13:55;;;;;;;16.42;8.00;;;;;;;;;;5057974;28;20044;-84
2022/05/10 03:16:23;;;;;;;22.35;8.43;;;;;;;;;;5081897;28;20040;-83
2022/05/10 03:18:49;;;;;;;14.55;7.90;;;;;;;;;;5081378;28;20061;-84
2022/05/10 03:21:16;;;;;;;16.52;8.50;;;;;;;;;;5073083;28;20033;-84
2022/05/10 03:23:42;;;;;;;14.52;8.43;;;;;;;;;;5059764;28;20468;-84
2022/05/10 03:26:10;;;;;;;13.18;8.05;;;;;;;;;;5085756;28;20085;-84
2022/05/10 03:28:37;;;;;;;15.85;8.85;;;;;;;;;;5069921;28;20376;-84
2022/05/10 03:31:04;;;;;;;15.02;8.50;;;;;;;;;;5065827;28;20127;-84
2022/05/10 03:33:30;;;;;;;14.98;8.70;;;;;;;;;;5084158;28;20517;-83
2022/05/10 03:35:56;;;;;;;14.35;8.40;;;;;;;;;;5087304;28;20123;-83
2022/05/10 03:38:23;;;;;;;19.20;8.93;;;;;;;;;;5061189;28;20404;-83
2022/05/10 03:40:49;;;;;;;15.18;9.23;;;;;;;;;;5084082;28;20052;-83
2022/05/10 03:43:15;;;;;;;15.18;8.60;;;;;;;;;;5070957;28;20388;-83
2022/05/10 03:45:41;;;;;;;16.98;9.63;;;;;;;;;;5088869;28;20075;-84
2022/05/10 03:48:07;;;;;;;16.23;9.18;;;;;;;;;;5084958;28;20043;-83
2022/05/10 03:50:35;;;;;;;15.30;8.73;;;;;;;;;;5075829;28;20048;-84
2022/05/10 03:53:01;;;;;;;17.15;8.70;;;;;;;;;;5080933;28;20532;-83
2022/05/10 03:55:28;;;;;;;18.83;9.50;;;;;;;;;;5073750;28;20044;-83
2022/05/10 03:57:55;;;;;;;17.42;8.70;;;;;;;;;;5086172;28;20080;-83
2022/05/10 04:00:23;;;;;;;17.40;8.90;;;;;;;;;;5069736;28;20127;-83
2022/05/10 04:02:49;;;;;;;16.42;9.18;;;;;;;;;;5069718;28;20097;-84
2022/05/10 04:05:16;;;;;;;17.17;9.27;;;;;;;;;;5074507;28;20048;-83
2022/05/10 04:07:42;;;;;;;18.10;9.30;;;;;;;;;;5088046;28;20072;-83
2022/05/10 04:10:09;;;;;;;17.80;9.95;;;;;;;;;;5076277;28;20041;-83
2022/05/10 04:12:36;;;;;;;17.73;9.20;;;;;;;;;;5085256;28;20056;-83
2022/05/10 04:15:03;;;;;;;18.58;9.18;;;;;;;;;;5061382;28;20036;-84
2022/05/10 04:17:29;;;;;;;22.10;9.60;;;;;;;;;;5066960;28;20131;-83
2022/05/10 04:19:55;;;;;;;16.67;9.65;;;;;;;;;;5075918;28;20032;-84
2022/05/10 04:22:21;;;;;;;17.02;9.63;;;;;;;;;;5075058;28;20078;-84
2022/05/10 04:24:47;;;;;;;17.10;9.20;;;;;;;;;;5088630;28;20457;-83
2022/05/10 04:27:14;;;;;;;14.82;9.38;;;;;;;;;;5080856;28;20032;-84
2022/05/10 04:29:40;;;;;;;16.50;9.25;;;;;;;;;;5073036;28;20044;-83
2022/05/10 04:32:06;;;;;;;21.45;10.27;;;;;;;;;;5058754;28;20620;-84
2022/05/10 04:34:32;;;;;;;16.83;9.43;;;;;;;;;;5080141;28;20040;-83
2022/05/10 04:36:58;;;;;;;19.13;9.70;;;;;;;;;;5077562;28;20141;-84
2022/05/10 04:39:24;;;;;;;19.50;10.05;;;;;;;;;;5086162;28;20036;-83
2022/05/10 04:41:56;;;;;;;16.38;9.25;;;;;;;;;;5063937;28;20503;-81
2022/05/10 04:44:22;;;;;;;20.08;10.23;;;;;;;;;;5101275;28;20138;-84
2022/05/10 04:46:48;;;;;;;20.25;9.93;;;;;;;;;;5063882;28;20039;-83
2022/05/10 04:49:15;;;;;;;15.13;9.10;;;;;;;;;;5088889;28;20040;-84
2022/05/10 04:51:41;;;;;;;16.70;9.63;;;;;;;;;;5077734;28;20380;-84
2022/05/10 04:54:08;;;;;;;17.33;10.02;;;;;;;;;;5072816;28;20224;-84
2022/05/10 04:56:34;;;;;;;15.00;8.95;;;;;;;;;;5083970;28;20028;-84
2022/05/10 04:59:00;;;;;;;14.70;9.23;;;;;;;;;;5086825;28;20086;-83
2022/05/10 05:01:29;;;;;;;15.18;9.93;;;;;;;;;;5060905;28;20117;-83
2022/05/10 05:03:56;;;;;;;19.88;10.23;;;;;;;;;;5075814;28;20101;-83
2022/05/10 05:06:26;;;;;;;17.50;10.45;;;;;;;;;;5059708;28;20106;-84
2022/05/10 05:08:52;;;;;;;18.70;10.40;;;;;;;;;;5073534;28;20040;-84
2022/05/10 05:11:18;;;;;;;18.60;10.23;;;;;;;;;;5083089;28;20067;-83
2022/05/10 05:13:45;;;;;;;17.63;10.18;;;;;;;;;;5076407;28;20714;-83
2022/05/10 05:16:11;;;;;;;16.55;10.57;;;;;;;;;;5070886;28;20043;-83
2022/05/10 05:18:37;;;;;;;19.85;11.20;;;;;;;;;;5078086;28;20090;-83
2022/05/10 05:21:03;;;;;;;19.52;10.98;;;;;;;;;;5080132;28;20044;-84
2022/05/10 05:23:29;;;;;;;19.95;10.35;;;;;;;;;;5088107;28;20036;-84
2022/05/10 05:25:56;;;;;;;21.67;10.38;;;;;;;;;;5072424;28;20138;-83
2022/05/10 05:28:22;;;;;;;16.63;9.80;;;;;;;;;;5075105;28;20499;-84
2022/05/10 05:30:49;;;;;;;17.23;9.35;;;;;;;;;;5077493;28;20378;-83
2022/05/10 05:33:15;;;;;;;16.70;9.95;;;;;;;;;;5067360;28;20059;-84
2022/05/10 05:35:42;;;;;;;14.98;9.57;;;;;;;;;;5079693;28;20028;-84
2022/05/10 05:38:08;;;;;;;16.98;9.85;;;;;;;;;;5069692;28;20044;-84
2022/05/10 05:40:35;;;;;;;14.48;9.32;;;;;;;;;;5087680;28;20040;-83
2022/05/10 05:43:01;;;;;;;16.05;9.73;;;;;;;;;;5081954;28;20041;-84
2022/05/10 05:45:27;;;;;;;16.75;9.27;;;;;;;;;;5082268;28;20033;-84
2022/05/10 05:47:54;;;;;;;16.00;9.93;;;;;;;;;;5076644;28;20059;-83
2022/05/10 05:50:21;;;;;;;15.43;9.40;;;;;;;;;;5072072;28;20045;-83
2022/05/10 05:52:48;;;;;;;19.77;9.38;;;;;;;;;;5074455;28;20049;-84
2022/05/10 05:55:16;;;;;;;18.67;9.55;;;;;;;;;;5086071;28;20032;-83
2022/05/10 05:57:42;;;;;;;16.58;9.30;;;;;;;;;;5064992;28;20063;-83
2022/05/10 06:00:09;;;;;;;16.65;9.23;;;;;;;;;;5068011;28;20093;-84
2022/05/10 06:02:36;;;;;;;16.25;9.00;;;;;;;;;;5053167;28;20071;-84
2022/05/10 06:05:02;;;;;;;14.77;8.43;;;;;;;;;;5076441;28;20491;-83
2022/05/10 06:07:29;;;;;;;17.15;8.60;;;;;;;;;;5077195;28;20423;-83
2022/05/10 06:09:55;;;;;;;11.32;7.80;;;;;;;;;;5081641;28;20043;-84
2022/05/10 06:12:21;;;;;;;15.90;7.93;;;;;;;;;;5051542;28;20421;-84
2022/05/10 06:14:48;;;;;;;16.58;8.20;;;;;;;;;;5082705;28;20035;-84
2022/05/10 06:17:15;;;;;;;11.85;7.80;;;;;;;;;;5084419;28;20563;-84
2022/05/10 06:19:42;;;;;;;12.82;7.63;;;;;;;;;;5075209;28;20503;-84
2022/05/10 06:22:08;;;;;;;15.88;8.15;;;;;;;;;;5067428;28;20365;-84
2022/05/10 06:24:35;;;;;;;13.43;8.40;;;;;;;;;;5067351;28;20029;-84
2022/05/10 06:27:01;;;;;;;12.82;7.82;;;;;;;;;;5072445;28;20037;-84
2022/05/10 06:29:27;;;;;;;12.98;7.60;;;;;;;;;;5086807;28;20507;-84
2022/05/10 06:31:53;;;;;;;14.95;7.47;;;;;;;;;;5081687;28;20051;-84
2022/05/10 06:34:19;;;;;;;15.73;7.07;;;;;;;;;;5046275;28;20276;-83
2022/05/10 06:36:45;;;;;;;13.00;6.70;;;;;;;;;;5083210;28;20042;-84
2022/05/10 06:39:12;;;;;;;12.68;7.10;;;;;;;;;;5057172;28;20368;-83
2022/05/10 06:41:38;;;;;;;10.57;5.93;;;;;;;;;;5066368;28;20045;-83
2022/05/10 06:44:05;;;;;;;10.63;6.10;;;;;;;;;;5064242;28;20067;-83
2022/05/10 06:46:32;;;;;;;9.05;5.43;;;;;;;;;;5069763;28;20044;-82
2022/05/10 06:48:59;;;;;;;9.18;5.35;;;;;;;;;;5070126;28;20496;-82
2022/05/10 06:51:25;;;;;;;13.00;6.03;;;;;;;;;;5058017;28;20048;-83
2022/05/10 06:53:53;;;;;;;19.33;5.30;;;;;;;;;;5049989;28;20063;-83
2022/05/10 06:56:19;;;;;;;9.98;5.28;;;;;;;;;;5067197;28;20050;-83
2022/05/10 06:58:45;;;;;;;9.00;5.13;;;;;;;;;;5074229;28;20081;-83
2022/05/10 07:01:12;;;;;;;8.10;4.93;;;;;;;;;;5058262;28;20040;-83
2022/05/10 07:03:43;;;;;;;10.07;4.95;;;;;;;;;;5074608;28;20477;-82
2022/05/10 07:06:10;;;;;;;10.35;4.70;;;;;;;;;;5072466;28;20032;-83
2022/05/10 07:08:36;;;;;;;7.25;4.45;;;;;;;;;;5064197;28;20032;-83
2022/05/10 07:11:03;;;;;;;9.65;4.38;;;;;;;;;;5068605;28;20063;-83
2022/05/10 07:13:30;;;;;;;9.20;4.55;;;;;;;;;;5077719;28;20110;-83
2022/05/10 07:15:56;;;;;;;9.07;4.78;;;;;;;;;;5058136;28;20519;-83
2022/05/10 07:18:22;;;;;;;9.35;4.50;;;;;;;;;;5053757;28;20032;-82
2022/05/10 07:20:49;;;;;;;9.90;4.25;;;;;;;;;;5079920;28;20051;-83
2022/05/10 07:23:19;;;;;;;9.48;5.07;;;;;;;;;;5077518;28;20059;-83
2022/05/10 07:25:45;;;;;;;9.50;4.90;;;;;;;;;;5076267;28;20093;-82
2022/05/10 07:28:11;;;;;;;10.13;5.05;;;;;;;;;;5088931;28;20039;-83
2022/05/10 07:30:38;;;;;;;11.32;4.90;;;;;;;;;;5083275;28;20040;-83
2022/05/10 07:33:04;;;;;;;10.93;4.97;;;;;;;;;;5076721;28;20046;-82
2022/05/10 07:38:17;;;;;;;12.27;4.60;;;;;;;;;;5072879;28;20044;-83
2022/05/10 07:40:46;;;;;;;11.40;4.88;;;;;;;;;;5052790;28;20117;-83
2022/05/10 07:43:13;;;;;;;9.38;4.63;;;;;;;;;;5074647;28;20177;-83
2022/05/10 07:45:40;;;;;;;10.07;4.82;;;;;;;;;;5075381;28;20541;-83
2022/05/10 07:48:06;;;;;;;10.13;4.15;;;;;;;;;;5081406;28;20855;-84
2022/05/10 07:50:33;;;;;;;12.32;4.20;;;;;;;;;;5087646;28;20399;-85
2022/05/10 07:53:00;;;;;;;7.80;4.15;;;;;;;;;;5067637;28;20102;-83
2022/05/10 07:55:26;;;;;;;11.73;4.10;;;;;;;;;;5071958;28;20071;-84
2022/05/10 07:57:53;;;;;;;8.00;4.50;;;;;;;;;;5076242;28;20130;-83
2022/05/10 08:00:19;;;;;;;11.88;4.05;;;;;;;;;;5060484;28;20062;-83
2022/05/10 08:02:45;;;;;;;9.02;4.03;;;;;;;;;;5085663;28;20127;-83
2022/05/10 08:05:12;;;;;;;6.60;3.92;;;;;;;;;;5038418;28;20035;-83
2022/05/10 08:07:38;;;;;;;8.95;4.10;;;;;;;;;;5078777;28;20388;-84
2022/05/10 08:10:05;;;;;;;8.55;4.05;;;;;;;;;;5062551;28;20044;-84
2022/05/10 08:12:31;;;;;;;11.32;4.53;;;;;;;;;;5080665;28;20127;-84
2022/05/10 08:14:57;;;;;;;10.40;4.32;;;;;;;;;;5052740;28;20093;-83
2022/05/10 08:17:23;;;;;;;10.88;3.97;;;;;;;;;;5071278;28;20442;-83
2022/05/10 08:19:51;;;;;;;9.00;4.00;;;;;;;;;;5078786;28;20059;-83
2022/05/10 08:22:17;;;;;;;7.25;4.07;;;;;;;;;;5079169;28;20054;-83
2022/05/10 08:24:44;;;;;;;7.13;3.72;;;;;;;;;;5083998;28;20545;-83
2022/05/10 08:27:10;;;;;;;8.25;3.60;;;;;;;;;;5067684;28;20036;-83
2022/05/10 08:29:37;;;;;;;9.35;3.90;;;;;;;;;;5051873;28;20043;-84
2022/05/10 08:32:03;;;;;;;7.10;3.92;;;;;;;;;;5039077;28;20484;-83
2022/05/10 08:34:29;;;;;;;11.32;3.60;;;;;;;;;;5053382;28;20048;-82
2022/05/10 08:36:56;;;;;;;7.57;3.55;;;;;;;;;;5069988;28;20543;-82
2022/05/10 08:39:22;;;;;;;6.22;3.78;;;;;;;;;;5070256;28;20072;-83
2022/05/10 08:41:54;;;;;;;6.35;3.47;;;;;;;;;;5069993;28;20234;-82
2022/05/10 08:44:22;;;;;;;8.43;3.33;;;;;;;;;;5082046;28;20522;-79
2022/05/10 08:46:53;;;;;;;6.80;4.05;;;;;;;;;;5077732;28;20040;-80
2022/05/10 08:49:21;;;;;;;9.35;3.78;;;;;;;;;;5085926;28;20136;-81
2022/05/10 08:51:47;;;;;;;8.95;3.67;;;;;;;;;;5059423;28;20076;-81
2022/05/10 08:54:13;;;;;;;7.97;4.15;;;;;;;;;;5070666;28;20039;-81
2022/05/10 08:56:46;;;;;;;11.98;4.32;;;;;;;;;;5083167;28;20618;-81
2022/05/10 08:59:31;;;;;;;8.43;4.53;;;;;;;;;;5071288;28;20047;-81
2022/05/10 09:02:00;;;;;;;9.30;4.80;;;;;;;;;;5068950;28;20110;-81
2022/05/10 09:04:46;;;;;;;10.00;4.60;;;;;;;;;;5068445;28;20037;-81
2022/05/10 09:07:15;;;;;;;10.32;5.03;;;;;;;;;;5069048;28;20041;-81
2022/05/10 09:09:49;;;;;;;8.65;5.35;;;;;;;;;;5051357;28;20028;-80
2022/05/10 09:12:24;;;;;;;11.52;5.40;;;;;;;;;;5074472;28;20507;-81
2022/05/10 09:15:01;;;;;;;8.85;5.10;;;;;;;;;;5095905;28;20548;-80
2022/05/10 09:17:36;;;;;;;14.50;5.88;;;;;;;;;;5083643;28;20033;-80
2022/05/10 09:20:02;;;;;;;;;;;;;;;;;;5078139;28;20534;-82
2022/05/10 09:22:34;;;;;;;12.68;5.10;;;;;;;;;;5066257;28;19964;-80
2022/05/10 09:25:00;;;;;;;10.90;5.82;;;;;;;;;;5068422;28;20169;-81
2022/05/10 09:27:35;;;;;;;9.73;5.80;;;;;;;;;;5051230;28;20109;-81
2022/05/10 09:30:02;;;;;;;9.02;5.80;;;;;;;;;;5074307;28;20041;-81
2022/05/10 09:35:28;;;;;;;11.82;5.47;;;;;;;;;;5066635;28;20056;-81
2022/05/10 09:38:00;;;;;;;11.48;5.75;;;;;;;;;;5074760;28;20044;-81
2022/05/10 09:40:34;;;;;;;9.23;5.80;;;;;;;;;;5065676;28;20044;-81
2022/05/10 09:43:32;;;;;;;12.82;5.47;;;;;;;;;;5068205;28;20062;-81
2022/05/10 09:46:13;;;;;;;12.18;5.47;;;;;;;;;;5072025;28;20083;-81
2022/05/10 09:48:42;;;;;;;8.23;5.38;;;;;;;;;;5069420;28;20166;-81
2022/05/10 09:51:45;;;;;;;15.50;5.32;;;;;;;;;;5077833;28;20102;-81
2022/05/10 09:54:18;;;;;;;9.13;5.00;;;;;;;;;;5041845;28;20048;-81
2022/05/10 09:56:49;;;;;;;11.68;5.43;;;;;;;;;;5044549;28;20045;-80
2022/05/10 09:59:18;;;;;;;10.38;5.70;;;;;;;;;;5048654;28;20055;-82
2022/05/10 10:01:45;;;;;;;8.00;5.40;;;;;;;;;;5070168;28;20094;-82
2022/05/10 10:04:17;;;;;;;11.18;5.45;;;;;;;;;;5050512;28;20496;-81
2022/05/10 10:06:43;;;;;;;9.82;5.55;;;;;;;;;;5047087;28;20055;-81
2022/05/10 10:09:10;;;;;;;14.98;6.03;;;;;;;;;;5068208;28;20508;-81
2022/05/10 10:11:39;;;;;;;12.05;6.10;;;;;;;;;;5053357;28;20067;-81
2022/05/10 10:14:06;;;;;;;12.75;7.00;;;;;;;;;;5060116;28;20395;-81
2022/05/10 10:16:35;;;;;;;15.15;6.10;;;;;;;;;;5049867;28;20032;-81
2022/05/10 10:19:09;;;;;;;16.13;6.40;;;;;;;;;;5067733;28;20048;-81
2022/05/10 10:21:51;;;;;;;13.18;6.45;;;;;;;;;;5076765;28;20115;-81
2022/05/10 10:24:24;;;;;;;9.75;5.88;;;;;;;;;;5066265;28;20119;-81
2022/05/10 10:26:51;;;;;;;14.85;6.25;;;;;;;;;;5067575;28;20048;-81
2022/05/10 10:29:29;;;;;;;13.00;5.70;;;;;;;;;;5070715;28;20080;-81
2022/05/10 10:32:07;;;;;;;13.98;5.75;;;;;;;;;;5068061;28;20048;-80
2022/05/10 10:34:49;;;;;;;10.90;5.50;;;;;;;;;;5067720;28;20044;-81
2022/05/10 10:37:19;;;;;;;11.27;5.40;;;;;;;;;;5079845;28;20044;-81
2022/05/10 10:40:05;;;;;;;14.65;4.75;;;;;;;;;;5089496;28;20055;-80
2022/05/10 10:42:48;;;;;;;15.95;4.07;;;;;;;;;;5052079;28;20396;-81
2022/05/10 10:45:15;;;;;;;8.85;3.95;;;;;;;;;;5069232;28;20447;-81
2022/05/10 10:47:41;;;;;;;10.50;3.83;;;;;;;;;;5053427;28;20065;-81
2022/05/10 10:50:19;;;;;;;13.73;4.03;;;;;;;;;;5070914;28;20518;-81
2022/05/10 10:52:45;;;;;;;10.00;4.13;;;;;;;;;;5069429;28;20040;-81
2022/05/10 10:55:12;;;;;;;14.90;3.70;;;;;;;;;;5044992;27;20944;-81
2022/05/10 10:57:41;;;;;;;17.48;4.80;;;;;;;;;;5010201;28;20033;-81
2022/05/10 11:00:07;;;;;;;19.10;4.47;;;;;;;;;;5009897;28;20100;-81
2022/05/10 11:02:52;;;;;;;17.52;3.75;;;;;;;;;;5022863;28;20042;-81
2022/05/10 11:05:21;;;;;;;9.20;3.90;;;;;;;;;;5010477;28;20548;-81
2022/05/10 11:08:08;;;;;;;12.57;3.60;;;;;;;;;;5010323;28;20459;-80
2022/05/10 11:10:53;;;;;;;16.80;4.55;;;;;;;;;;5010990;28;20112;-80
2022/05/10 11:13:34;;;;;;;10.90;4.03;;;;;;;;;;5010314;28;20109;-81
2022/05/10 11:16:00;;;;;;;13.32;3.97;;;;;;;;;;5010021;28;20049;-80
2022/05/10 11:18:37;;;;;;;14.98;3.70;;;;;;;;;;5002281;28;20316;-80
2022/05/10 11:21:10;;;;;;;8.60;3.95;;;;;;;;;;4992724;28;20293;-80
2022/05/10 11:23:48;;;;;;;11.65;3.92;;;;;;;;;;5026457;28;20041;-80
2022/05/10 11:26:23;;;;;;;10.07;4.32;;;;;;;;;;5011673;28;20034;-81
2022/05/10 11:28:57;;;;;;;11.18;4.78;;;;;;;;;;5010554;28;20859;-80
2022/05/10 11:31:27;;;;;;;10.95;4.63;;;;;;;;;;4993770;28;20132;-80
2022/05/10 11:34:02;;;;;;;8.57;4.05;;;;;;;;;;5008749;28;20095;-81
2022/05/10 11:36:42;;;;;;;14.00;4.37;;;;;;;;;;4993748;28;20145;-81
2022/05/10 11:39:17;;;;;;;9.63;4.10;;;;;;;;;;5009228;28;20041;-81
2022/05/10 11:42:02;;;;;;;17.75;5.35;;;;;;;;;;5006226;28;20628;-81
2022/05/10 11:44:47;;;;;;;12.23;5.50;;;;;;;;;;5006788;28;20557;-81
2022/05/10 11:47:36;;;;;;;13.48;5.65;;;;;;;;;;5009241;28;20100;-81
2022/05/10 11:50:21;;;;;;;12.23;5.68;;;;;;;;;;5009862;28;20046;-81
2022/05/10 11:52:56;;;;;;;14.10;5.57;;;;;;;;;;4993297;28;20065;-81
2022/05/10 11:55:36;;;;;;;12.25;4.60;;;;;;;;;;5008713;28;20419;-81
2022/05/10 11:58:03;;;;;;;12.52;4.40;;;;;;;;;;5009609;28;20092;-80
2022/05/10 12:00:33;;;;;;;9.05;4.32;;;;;;;;;;5009511;28;20050;-81
2022/05/10 12:03:00;;;;;;;15.48;4.85;;;;;;;;;;5008599;28;20184;-81
2022/05/10 12:05:28;;;;;;;13.02;4.57;;;;;;;;;;5009488;28;20042;-82
2022/05/10 12:07:59;;;;;;;14.27;4.85;;;;;;;;;;5010467;28;20045;-80
2022/05/10 12:10:45;;;;;;;11.35;4.30;;;;;;;;;;5009005;28;20042;-79
2022/05/10 12:13:14;;;;;;;18.58;4.07;;;;;;;;;;5008750;28;20075;-80
2022/05/10 12:21:20;;;;;;;13.85;3.90;;;;;;;;;;5006675;28;20053;-81
2022/05/10 12:24:04;;;;;;;13.77;3.83;;;;;;;;;;5007468;28;20448;-81
2022/05/10 12:26:35;;;;;;;24.00;5.00;;;;;;;;;;5009044;28;20515;-80
2022/05/10 12:29:02;;;;;;;13.43;3.30;;;;;;;;;;5008160;28;20046;-81
2022/05/10 12:31:34;;;;;;;9.38;3.28;;;;;;;;;;5008094;28;20121;-81
2022/05/10 12:34:01;;;;;;;9.35;3.00;;;;;;;;;;5020171;28;20050;-79
2022/05/10 12:36:35;;;;;;;11.75;3.50;;;;;;;;;;5008330;28;20052;-81
2022/05/10 12:39:21;;;;;;;10.88;3.22;;;;;;;;;;5006574;28;20085;-81
2022/05/10 12:41:47;;;;;;;9.40;3.13;;;;;;;;;;4992738;28;20038;-80
2022/05/10 12:44:22;;;;;;;9.65;2.95;;;;;;;;;;5008400;28;20046;-81
2022/05/10 12:46:58;;;;;;;13.15;3.50;;;;;;;;;;5007332;28;20132;-80
2022/05/10 12:49:32;;;;;;;31.42;3.70;;;;;;;;;;4992190;28;20057;-81
2022/05/10 12:52:20;;;;;;;12.45;3.53;;;;;;;;;;5008323;28;20089;-80
2022/05/10 12:54:48;;;;;;;11.77;3.47;;;;;;;;;;5008824;28;20060;-81
2022/05/10 12:57:31;;;;;;;10.30;3.25;;;;;;;;;;5005483;28;20072;-81
2022/05/10 13:00:07;;;;;;;11.68;3.03;;;;;;;;;;5006920;28;20034;-80
2022/05/10 13:02:34;;;;;;;8.48;3.33;;;;;;;;;;5007351;28;20515;-81
2022/05/10 13:05:04;;;;;;;6.07;2.78;;;;;;;;;;5023657;28;20482;-81
2022/05/10 13:07:42;;;;;;;7.88;2.95;;;;;;;;;;5003843;28;20092;-81
2022/05/10 13:10:11;;;;;;;10.15;2.95;;;;;;;;;;5004573;28;20045;-81
2022/05/10 13:12:46;;;;;;;8.00;2.63;;;;;;;;;;4990066;28;20053;-81
2022/05/10 13:15:14;;;;;;;10.17;3.20;;;;;;;;;;5006403;28;20048;-82
2022/05/10 13:17:46;;;;;;;8.05;3.00;;;;;;;;;;5007678;28;20060;-82
2022/05/10 13:20:13;;;;;;;8.25;2.58;;;;;;;;;;5009594;28;20047;-81
2022/05/10 13:22:53;;;;;;;10.85;2.80;;;;;;;;;;5007152;28;20048;-81
2022/05/10 13:25:27;;;;;;;8.07;2.85;;;;;;;;;;5023092;28;20042;-81
2022/05/10 13:28:05;;;;;;;6.45;2.45;;;;;;;;;;4989478;28;20089;-81
2022/05/10 13:30:31;;;;;;;9.65;2.03;;;;;;;;;;5006296;28;20131;-81
2022/05/10 13:32:58;;;;;;;9.18;1.77;;;;;;;;;;5006088;28;20048;-80
2022/05/10 13:35:26;;;;;;;8.07;1.52;;;;;;;;;;5006396;28;20394;-81
2022/05/10 13:38:00;;;;;;;6.90;1.50;;;;;;;;;;5006792;28;20517;-81
2022/05/10 13:40:35;;;;;;;8.20;1.63;;;;;;;;;;4989293;28;20042;-81
2022/05/10 13:43:11;;;;;;;5.70;1.13;;;;;;;;;;4989856;28;20436;-81
2022/05/10 13:45:37;;;;;;;10.35;1.40;;;;;;;;;;5007819;28;20402;-81
2022/05/10 13:48:09;;;;;;;6.82;1.05;;;;;;;;;;5007222;28;20502;-82
2022/05/10 13:50:36;;;;;;;8.52;1.00;;;;;;;;;;5021650;28;20140;-81
2022/05/10 13:53:04;;;;;;;6.07;0.70;;;;;;;;;;4990881;28;20128;-81
2022/05/10 13:55:30;;;;;;;5.63;0.73;;;;;;;;;;5007300;28;20053;-79
2022/05/10 13:57:59;;;;;;;3.97;0.50;;;;;;;;;;4990559;28;20049;-83
2022/05/10 14:00:29;;;;;;;6.25;1.00;;;;;;;;;;5007145;28;20037;-80
2022/05/10 14:02:56;;;;;;;6.97;1.00;;;;;;;;;;5007395;28;20045;-81
2022/05/10 14:05:23;;;;;;;2.60;0.88;;;;;;;;;;4991616;28;20397;-81
2022/05/10 14:07:56;;;;;;;5.72;0.90;;;;;;;;;;5006842;28;20083;-81
2022/05/10 14:10:24;;;;;;;3.42;0.80;;;;;;;;;;5006102;28;20092;-81
2022/05/10 14:12:57;;;;;;;2.80;0.90;;;;;;;;;;5008582;28;20378;-82
2022/05/10 14:15:25;;;;;;;3.95;1.25;;;;;;;;;;5021964;28;20065;-83
2022/05/10 14:17:55;;;;;;;4.72;1.33;;;;;;;;;;5008723;28;20069;-83
2022/05/10 14:20:24;;;;;;;2.50;0.80;;;;;;;;;;5012259;28;20056;-84
2022/05/10 14:22:56;;;;;;;3.33;0.90;;;;;;;;;;5030289;28;20054;-83
2022/05/10 14:25:26;;;;;;;3.70;0.90;;;;;;;;;;5015229;28;20096;-84
2022/05/10 14:27:58;;;;;;;3.47;1.00;;;;;;;;;;5013406;28;20133;-84
2022/05/10 14:30:26;;;;;;;4.50;1.00;;;;;;;;;;5012659;28;20453;-84
2022/05/10 14:32:53;;;;;;;5.97;1.25;;;;;;;;;;5012496;28;20098;-85
2022/05/10 14:35:33;;;;;;;3.83;1.20;;;;;;;;;;5011488;28;20050;-84
2022/05/10 14:38:07;;;;;;;3.45;1.10;;;;;;;;;;5003923;28;20054;-85
2022/05/10 14:40:37;;;;;;;4.68;1.20;;;;;;;;;;4993759;28;20038;-85
2022/05/10 14:43:05;;;;;;;3.63;1.40;;;;;;;;;;5007734;28;20082;-83
2022/05/10 14:45:31;;;;;;;3.90;1.13;;;;;;;;;;5011825;28;20037;-82
2022/05/10 14:47:57;;;;;;;4.25;1.50;;;;;;;;;;5011493;28;20036;-84
2022/05/10 14:50:32;;;;;;;3.40;1.20;;;;;;;;;;5013151;28;20057;-80
2022/05/10 14:53:10;;;;;;;6.33;1.20;;;;;;;;;;5013158;28;20048;-84
2022/05/10 14:55:37;;;;;;;4.68;1.10;;;;;;;;;;5026731;28;20085;-85
2022/05/10 14:58:03;;;;;;;4.63;1.38;;;;;;;;;;4991961;28;20038;-85
2022/05/10 15:00:32;;;;;;;3.95;1.00;;;;;;;;;;5011038;28;20049;-84
2022/05/10 15:03:04;;;;;;;3.38;1.20;;;;;;;;;;5010572;28;20513;-84
2022/05/10 15:05:32;;;;;;;7.45;1.35;;;;;;;;;;5009305;28;20137;-84
2022/05/10 15:07:58;;;;;;;4.22;1.30;;;;;;;;;;5010230;28;20050;-85